createdAt,value
2018-09-13T00:01:49.241Z,12.70
2018-09-13T00:04:17.508Z,12.70
2018-09-13T00:06:45.783Z,12.70
2018-09-13T00:09:14.013Z,12.70
2018-09-13T00:11:42.243Z,12.70
2018-09-13T00:14:10.487Z,12.70
2018-09-13T00:16:38.731Z,12.70
2018-09-13T00:19:06.956Z,12.70
2018-09-13T00:21:35.180Z,12.70
2018-09-13T00:24:03.404Z,12.60
2018-09-13T00:26:31.629Z,12.60
2018-09-13T00:28:59.966Z,12.60
2018-09-13T00:31:28.204Z,12.60
2018-09-13T00:33:56.403Z,12.60
2018-09-13T00:36:24.606Z,12.60
2018-09-13T00:38:52.866Z,12.60
2018-09-13T00:41:21.227Z,12.60
2018-09-13T00:43:49.484Z,12.60
2018-09-13T00:46:17.700Z,12.60
2018-09-13T00:48:45.936Z,12.60
2018-09-13T00:51:14.203Z,12.50
2018-09-13T00:53:42.818Z,12.50
2018-09-13T00:56:11.543Z,12.50
2018-09-13T00:58:39.843Z,12.50
2018-09-13T01:01:08.054Z,12.50
2018-09-13T01:03:36.275Z,12.40
2018-09-13T01:06:04.480Z,12.40
2018-09-13T01:08:32.719Z,12.40
2018-09-13T01:11:00.932Z,12.40
2018-09-13T01:13:29.199Z,12.40
2018-09-13T01:15:57.383Z,12.40
2018-09-13T01:18:25.631Z,12.40
2018-09-13T01:20:53.839Z,12.40
2018-09-13T01:23:22.052Z,12.50
2018-09-13T01:25:50.320Z,12.60
2018-09-13T01:28:18.568Z,12.70
2018-09-13T01:30:46.852Z,12.80
2018-09-13T01:33:15.139Z,12.90
2018-09-13T01:35:43.489Z,12.90
2018-09-13T01:38:11.735Z,12.90
2018-09-13T01:40:39.976Z,13.00
2018-09-13T01:43:08.425Z,13.00
2018-09-13T01:45:36.678Z,13.00
2018-09-13T01:48:04.900Z,13.10
2018-09-13T01:50:33.128Z,13.00
2018-09-13T01:53:01.396Z,13.10
2018-09-13T01:55:29.631Z,13.00
2018-09-13T01:57:57.839Z,13.00
2018-09-13T02:00:26.047Z,13.00
2018-09-13T02:02:54.239Z,13.00
2018-09-13T02:05:22.458Z,12.90
2018-09-13T02:07:50.688Z,12.90
2018-09-13T02:10:18.923Z,12.90
2018-09-13T02:12:47.149Z,12.90
2018-09-13T02:15:15.435Z,12.90
2018-09-13T02:17:43.655Z,12.90
2018-09-13T02:20:11.900Z,12.90
2018-09-13T02:22:40.103Z,12.80
2018-09-13T02:25:08.567Z,12.80
2018-09-13T02:27:36.767Z,12.80
2018-09-13T02:30:05.187Z,12.80
2018-09-13T02:32:33.407Z,12.80
2018-09-13T02:35:01.644Z,12.80
2018-09-13T02:37:29.865Z,12.80
2018-09-13T02:39:58.110Z,12.80
2018-09-13T02:42:26.332Z,12.80
2018-09-13T02:44:54.589Z,12.90
2018-09-13T02:47:22.839Z,12.90
2018-09-13T02:49:51.204Z,12.80
2018-09-13T02:52:19.457Z,12.80
2018-09-13T02:54:47.748Z,12.80
2018-09-13T02:57:15.977Z,12.80
2018-09-13T02:59:44.239Z,12.70
2018-09-13T03:02:12.497Z,12.70
2018-09-13T03:04:40.757Z,12.70
2018-09-13T03:07:08.962Z,12.60
2018-09-13T03:09:37.209Z,12.60
2018-09-13T03:12:05.457Z,12.60
2018-09-13T03:14:33.720Z,12.50
2018-09-13T03:17:01.932Z,12.50
2018-09-13T03:19:30.160Z,12.40
2018-09-13T03:21:58.440Z,12.40
2018-09-13T03:24:27.617Z,12.30
2018-09-13T03:26:55.845Z,12.20
2018-09-13T03:29:24.089Z,12.20
2018-09-13T03:31:52.384Z,12.20
2018-09-13T03:34:20.592Z,12.20
2018-09-13T03:36:48.844Z,12.20
2018-09-13T03:39:17.102Z,12.30
2018-09-13T03:41:45.368Z,12.40
2018-09-13T03:44:13.580Z,12.50
2018-09-13T03:46:41.795Z,12.60
2018-09-13T03:49:10.004Z,12.50
2018-09-13T03:51:38.243Z,12.50
2018-09-13T03:54:06.483Z,12.50
2018-09-13T03:56:34.738Z,12.40
2018-09-13T03:59:02.925Z,12.30
2018-09-13T04:01:31.141Z,12.30
2018-09-13T04:03:59.370Z,12.20
2018-09-13T04:06:27.608Z,12.20
2018-09-13T04:08:55.803Z,12.10
2018-09-13T04:11:24.012Z,12.10
2018-09-13T04:13:52.241Z,12.10
2018-09-13T04:16:20.658Z,12.10
2018-09-13T04:18:49.355Z,12.10
2018-09-13T04:21:17.555Z,12.10
2018-09-13T04:23:45.783Z,12.10
2018-09-13T04:26:14.197Z,12.20
2018-09-13T04:28:42.448Z,12.20
2018-09-13T04:31:10.691Z,12.20
2018-09-13T04:33:38.909Z,12.20
2018-09-13T04:36:07.198Z,12.30
2018-09-13T04:38:35.399Z,12.30
2018-09-13T04:41:03.662Z,12.30
2018-09-13T04:43:31.900Z,12.40
2018-09-13T04:46:00.164Z,12.40
2018-09-13T04:48:28.444Z,12.40
2018-09-13T04:50:56.667Z,12.50
2018-09-13T04:53:24.863Z,12.60
2018-09-13T04:55:53.107Z,12.60
2018-09-13T04:58:21.320Z,12.50
2018-09-13T05:00:49.571Z,12.50
2018-09-13T05:03:17.811Z,12.40
2018-09-13T05:05:46.077Z,12.30
2018-09-13T05:08:14.315Z,12.20
2018-09-13T05:10:42.568Z,12.10
2018-09-13T05:13:10.791Z,12.00
2018-09-13T05:15:39.733Z,12.00
2018-09-13T05:18:07.977Z,11.90
2018-09-13T05:20:37.027Z,11.90
2018-09-13T05:23:05.596Z,11.80
2018-09-13T05:25:33.983Z,11.70
2018-09-13T05:28:02.203Z,11.70
2018-09-13T05:30:30.711Z,11.80
2018-09-13T05:32:58.927Z,11.80
2018-09-13T05:35:27.240Z,11.90
2018-09-13T05:37:55.466Z,11.90
2018-09-13T05:40:23.709Z,11.90
2018-09-13T05:42:51.934Z,11.90
2018-09-13T05:45:20.216Z,12.00
2018-09-13T05:47:48.444Z,12.00
2018-09-13T05:50:16.667Z,12.10
2018-09-13T05:52:44.904Z,12.20
2018-09-13T05:55:13.124Z,12.20
2018-09-13T05:57:41.373Z,12.30
2018-09-13T06:00:09.648Z,12.40
2018-09-13T06:02:37.899Z,12.50
2018-09-13T06:05:06.223Z,12.60
2018-09-13T06:07:34.520Z,12.80
2018-09-13T06:10:03.659Z,13.00
2018-09-13T06:12:31.934Z,13.70
2018-09-13T06:15:00.192Z,14.70
2018-09-13T06:17:28.460Z,15.80
2018-09-13T06:19:56.698Z,16.80
2018-09-13T06:22:24.900Z,17.80
2018-09-13T06:24:53.111Z,18.80
2018-09-13T06:27:21.348Z,19.70
2018-09-13T06:29:49.580Z,20.30
2018-09-13T06:32:17.813Z,20.90
2018-09-13T06:34:46.055Z,21.40
2018-09-13T06:37:14.316Z,21.80
2018-09-13T06:39:42.543Z,22.10
2018-09-13T06:42:10.784Z,22.50
2018-09-13T06:44:39.120Z,22.90
2018-09-13T06:47:07.415Z,23.10
2018-09-13T06:49:35.679Z,23.20
2018-09-13T06:52:03.952Z,23.60
2018-09-13T06:54:32.184Z,23.80
2018-09-13T06:57:00.428Z,24.00
2018-09-13T06:59:28.671Z,24.10
2018-09-13T07:01:56.937Z,24.00
2018-09-13T07:04:25.190Z,23.80
2018-09-13T07:06:53.823Z,23.50
2018-09-13T07:09:22.063Z,23.30
2018-09-13T07:11:50.278Z,23.00
2018-09-13T07:14:18.540Z,22.80
2018-09-13T07:16:47.116Z,22.40
2018-09-13T07:19:15.340Z,22.00
2018-09-13T07:21:43.579Z,21.50
2018-09-13T07:24:11.810Z,21.00
2018-09-13T07:26:40.359Z,20.70
2018-09-13T07:29:08.603Z,20.50
2018-09-13T07:31:36.854Z,20.40
2018-09-13T07:34:05.137Z,20.30
2018-09-13T07:36:33.380Z,20.10
2018-09-13T07:39:01.589Z,20.10
2018-09-13T07:41:29.840Z,20.10
2018-09-13T07:43:58.075Z,19.90
2018-09-13T07:46:26.323Z,19.90
2018-09-13T07:48:54.536Z,19.80
2018-09-13T07:51:22.746Z,19.90
2018-09-13T07:53:50.952Z,19.90
2018-09-13T07:56:19.218Z,19.80
2018-09-13T07:58:47.464Z,20.00
2018-09-13T08:01:15.695Z,20.20
2018-09-13T08:03:44.589Z,20.20
2018-09-13T08:06:12.833Z,20.50
2018-09-13T08:08:41.083Z,20.60
2018-09-13T08:11:09.336Z,20.70
2018-09-13T08:13:37.630Z,20.80
2018-09-13T08:16:05.913Z,20.90
2018-09-13T08:18:34.159Z,20.90
2018-09-13T08:21:02.381Z,20.70
2018-09-13T08:23:30.695Z,20.70
2018-09-13T08:25:58.980Z,20.70
2018-09-13T08:28:27.531Z,20.60
2018-09-13T08:30:55.772Z,20.10
2018-09-13T08:33:24.069Z,19.90
2018-09-13T08:35:52.331Z,19.60
2018-09-13T08:38:20.564Z,19.50
2018-09-13T08:40:48.775Z,19.20
2018-09-13T08:43:16.980Z,19.00
2018-09-13T08:45:45.223Z,18.80
2018-09-13T08:48:13.623Z,18.60
2018-09-13T08:50:41.836Z,18.50
2018-09-13T08:53:10.092Z,18.50
2018-09-13T08:58:12.931Z,18.50
2018-09-13T09:00:41.225Z,18.50
2018-09-13T09:03:09.488Z,18.60
2018-09-13T09:05:37.756Z,18.60
2018-09-13T09:08:06.056Z,18.70
2018-09-13T09:10:34.662Z,18.80
2018-09-13T09:13:02.939Z,18.80
2018-09-13T09:15:31.194Z,18.70
2018-09-13T09:17:59.444Z,18.80
2018-09-13T09:20:27.669Z,18.90
2018-09-13T09:22:55.895Z,19.00
2018-09-13T09:25:25.095Z,19.00
2018-09-13T09:27:53.362Z,19.10
2018-09-13T09:30:21.600Z,19.20
2018-09-13T09:32:49.828Z,19.30
2018-09-13T09:35:18.041Z,19.50
2018-09-13T09:37:46.303Z,19.60
2018-09-13T09:40:14.515Z,19.80
2018-09-13T09:42:42.772Z,20.10
2018-09-13T09:45:11.016Z,20.30
2018-09-13T09:47:39.279Z,20.50
2018-09-13T09:50:07.645Z,20.80
2018-09-13T09:52:35.936Z,21.00
2018-09-13T09:55:04.252Z,20.90
2018-09-13T09:57:32.504Z,20.80
2018-09-13T10:00:00.696Z,20.50
2018-09-13T10:02:28.915Z,20.30
2018-09-13T10:04:57.152Z,20.10
2018-09-13T10:07:25.424Z,19.80
2018-09-13T10:09:53.644Z,19.50
2018-09-13T10:12:21.879Z,19.30
2018-09-13T10:14:55.629Z,19.20
2018-09-13T10:17:29.445Z,19.20
2018-09-13T10:20:03.028Z,19.10
2018-09-13T10:23:34.544Z,19.00
2018-09-13T10:26:08.264Z,19.00
2018-09-13T10:28:42.762Z,19.20
2018-09-13T10:31:16.231Z,19.40
2018-09-13T10:33:49.928Z,19.40
2018-09-13T10:36:23.572Z,19.30
2018-09-13T10:38:57.229Z,19.50
2018-09-13T10:41:31.332Z,19.70
2018-09-13T10:44:05.055Z,19.90
2018-09-13T10:46:33.293Z,19.90
2018-09-13T10:49:06.892Z,19.90
2018-09-13T10:51:40.547Z,19.80
2018-09-13T10:54:15.404Z,19.70
2018-09-13T10:56:43.767Z,19.70
2018-09-13T10:59:12.055Z,19.70
2018-09-13T11:01:40.256Z,19.90
2018-09-13T11:04:08.574Z,20.10
2018-09-13T11:06:36.836Z,20.20
2018-09-13T11:09:06.092Z,20.20
2018-09-13T11:11:34.359Z,20.20
2018-09-13T11:14:06.658Z,20.50
2018-09-13T11:16:34.901Z,20.70
2018-09-13T11:19:03.141Z,21.00
2018-09-13T11:21:31.417Z,21.20
2018-09-13T11:23:59.677Z,21.30
2018-09-13T11:26:27.954Z,21.30
2018-09-13T11:28:56.316Z,21.40
2018-09-13T11:31:24.555Z,21.40
2018-09-13T11:33:53.186Z,21.40
2018-09-13T11:36:21.400Z,21.40
2018-09-13T11:38:49.600Z,21.30
2018-09-13T11:41:17.831Z,21.30
2018-09-13T11:43:46.080Z,21.20
2018-09-13T11:46:14.319Z,21.00
2018-09-13T11:48:42.576Z,20.80
2018-09-13T11:51:10.828Z,20.60
2018-09-13T11:53:39.117Z,20.50
2018-09-13T11:56:07.564Z,20.50
2018-09-13T11:58:35.945Z,20.50
2018-09-13T12:01:04.262Z,20.50
2018-09-13T12:03:32.512Z,20.70
2018-09-13T12:06:00.816Z,20.80
2018-09-13T12:08:29.187Z,21.00
2018-09-13T12:10:57.526Z,20.60
2018-09-13T12:13:25.840Z,20.70
2018-09-13T12:15:54.310Z,20.70
2018-09-13T12:18:22.609Z,20.90
2018-09-13T12:20:50.810Z,21.20
2018-09-13T12:23:19.020Z,21.50
2018-09-13T12:25:47.491Z,21.80
2018-09-13T12:28:15.719Z,21.90
2018-09-13T12:30:43.983Z,21.90
2018-09-13T12:33:12.240Z,21.90
2018-09-13T12:35:40.515Z,22.00
2018-09-13T12:38:08.760Z,22.00
2018-09-13T12:40:37.028Z,21.80
2018-09-13T12:43:05.233Z,21.80
2018-09-13T12:45:33.455Z,21.80
2018-09-13T12:48:01.705Z,21.80
2018-09-13T12:50:30.021Z,21.90
2018-09-13T12:52:58.264Z,22.10
2018-09-13T12:55:30.766Z,22.40
2018-09-13T12:57:59.031Z,22.80
2018-09-13T13:00:27.294Z,22.90
2018-09-13T13:02:55.527Z,22.90
2018-09-13T13:05:23.752Z,22.80
2018-09-13T13:07:51.975Z,22.80
2018-09-13T13:10:20.243Z,22.80
2018-09-13T13:12:48.467Z,23.00
2018-09-13T13:15:16.687Z,23.10
2018-09-13T13:17:44.966Z,22.70
2018-09-13T13:20:13.255Z,22.50
2018-09-13T13:22:41.548Z,22.60
2018-09-13T13:25:09.859Z,22.30
2018-09-13T13:27:38.234Z,22.10
2018-09-13T13:30:06.734Z,22.10
2018-09-13T13:32:35.124Z,22.10
2018-09-13T13:35:03.389Z,22.30
2018-09-13T13:37:31.591Z,22.20
2018-09-13T13:39:59.849Z,22.30
2018-09-13T13:42:28.056Z,22.50
2018-09-13T13:44:56.379Z,22.40
2018-09-13T13:47:24.639Z,22.40
2018-09-13T13:49:52.894Z,22.50
2018-09-13T13:52:21.115Z,22.50
2018-09-13T13:54:49.336Z,22.50
2018-09-13T13:57:17.628Z,22.40
2018-09-13T13:59:45.916Z,22.30
2018-09-13T14:02:14.147Z,22.00
2018-09-13T14:04:42.373Z,22.00
2018-09-13T14:07:10.613Z,21.90
2018-09-13T14:09:38.881Z,21.90
2018-09-13T14:12:07.175Z,21.80
2018-09-13T14:14:35.404Z,21.80
2018-09-13T14:17:03.974Z,21.80
2018-09-13T14:19:32.224Z,21.70
2018-09-13T14:22:00.467Z,21.70
2018-09-13T14:24:28.683Z,21.60
2018-09-13T14:26:56.928Z,21.40
2018-09-13T14:29:25.208Z,21.30
2018-09-13T14:31:53.469Z,21.30
2018-09-13T14:34:21.715Z,21.30
2018-09-13T14:36:49.975Z,21.30
2018-09-13T14:39:18.208Z,21.30
2018-09-13T14:41:46.439Z,21.30
2018-09-13T14:44:14.718Z,21.30
2018-09-13T14:46:42.976Z,21.10
2018-09-13T14:49:11.265Z,21.20
2018-09-13T14:51:39.560Z,21.20
2018-09-13T14:54:07.832Z,21.00
2018-09-13T14:56:36.088Z,20.90
2018-09-13T14:59:04.426Z,20.90
2018-09-13T15:01:32.687Z,20.80
2018-09-13T15:04:00.945Z,20.80
2018-09-13T15:06:29.218Z,20.70
2018-09-13T15:08:57.448Z,20.60
2018-09-13T15:11:25.705Z,20.50
2018-09-13T15:13:53.928Z,20.50
2018-09-13T15:16:22.207Z,20.40
2018-09-13T15:18:50.460Z,20.30
2018-09-13T15:21:18.713Z,20.20
2018-09-13T15:23:46.984Z,20.20
2018-09-13T15:26:15.275Z,20.20
2018-09-13T15:28:43.552Z,20.20
2018-09-13T15:31:11.825Z,20.10
2018-09-13T15:33:40.182Z,20.00
2018-09-13T15:36:08.451Z,19.80
2018-09-13T15:38:36.713Z,19.70
2018-09-13T15:41:05.104Z,19.70
2018-09-13T15:43:33.360Z,19.60
2018-09-13T15:46:01.632Z,19.60
2018-09-13T15:48:29.881Z,19.60
2018-09-13T15:50:58.100Z,19.50
2018-09-13T15:53:26.338Z,19.40
2018-09-13T15:55:54.623Z,19.40
2018-09-13T15:58:22.988Z,19.30
2018-09-13T16:00:51.303Z,19.30
2018-09-13T16:03:19.551Z,19.30
2018-09-13T16:05:47.817Z,19.20
2018-09-13T16:08:16.099Z,19.00
2018-09-13T16:10:44.375Z,19.00
2018-09-13T16:13:12.669Z,18.90
2018-09-13T16:15:40.960Z,18.90
2018-09-13T16:18:09.307Z,18.90
2018-09-13T16:20:37.551Z,18.80
2018-09-13T16:23:05.904Z,18.80
2018-09-13T16:25:34.188Z,18.70
2018-09-13T16:28:02.534Z,18.60
2018-09-13T16:30:30.801Z,18.50
2018-09-13T16:32:59.089Z,18.40
2018-09-13T16:35:27.418Z,18.30
2018-09-13T16:38:01.133Z,18.30
2018-09-13T16:40:34.778Z,18.20
2018-09-13T16:43:08.715Z,18.20
2018-09-13T16:45:37.032Z,18.10
2018-09-13T16:48:06.003Z,18.00
2018-09-13T16:50:34.502Z,17.90
2018-09-13T16:53:02.830Z,17.90
2018-09-13T16:55:31.081Z,17.80
2018-09-13T16:57:59.376Z,17.80
2018-09-13T17:00:27.820Z,17.70
2018-09-13T17:02:56.315Z,17.60
2018-09-13T17:05:24.584Z,17.50
2018-09-13T17:07:52.888Z,17.40
2018-09-13T17:10:21.160Z,17.30
2018-09-13T17:12:49.465Z,17.30
2018-09-13T17:15:18.195Z,17.20
2018-09-13T17:17:46.575Z,17.10
2018-09-13T17:20:14.899Z,17.00
2018-09-13T17:22:43.338Z,16.80
2018-09-13T17:25:12.687Z,16.70
2018-09-13T17:27:40.987Z,16.60
2018-09-13T17:30:09.285Z,16.50
2018-09-13T17:32:37.685Z,16.40
2018-09-13T17:35:06.034Z,16.30
2018-09-13T17:37:34.386Z,16.20
2018-09-13T17:40:03.946Z,16.10
2018-09-13T17:42:32.259Z,16.10
2018-09-13T17:45:00.607Z,16.00
2018-09-13T17:47:28.944Z,15.90
2018-09-13T17:49:57.516Z,15.90
2018-09-13T17:52:26.502Z,15.80
2018-09-13T17:54:55.960Z,15.70
2018-09-13T17:57:25.497Z,15.60
2018-09-13T17:59:54.713Z,15.50
2018-09-13T18:02:23.020Z,15.40
2018-09-13T18:04:51.429Z,15.40
2018-09-13T18:07:19.835Z,15.30
2018-09-13T18:09:48.428Z,15.20
2018-09-13T18:12:16.774Z,15.20
2018-09-13T18:14:46.666Z,15.10
2018-09-13T18:17:14.956Z,15.10
2018-09-13T18:19:43.284Z,15.00
2018-09-13T18:22:11.805Z,14.90
2018-09-13T18:24:40.207Z,14.90
2018-09-13T18:27:08.663Z,14.80
2018-09-13T18:29:37.007Z,14.70
2018-09-13T18:32:05.356Z,14.70
2018-09-13T18:34:33.687Z,14.60
2018-09-13T18:37:02.154Z,14.50
2018-09-13T18:39:30.525Z,14.50
2018-09-13T18:41:58.880Z,14.40
2018-09-13T18:44:27.156Z,14.40
2018-09-13T18:46:56.309Z,14.30
2018-09-13T18:49:25.746Z,14.20
2018-09-13T18:51:54.678Z,14.10
2018-09-13T18:54:23.231Z,14.00
2018-09-13T18:56:51.421Z,13.90
2018-09-13T18:59:21.415Z,13.80
2018-09-13T19:01:50.888Z,13.70
2018-09-13T19:04:19.268Z,13.70
2018-09-13T19:06:47.546Z,13.60
2018-09-13T19:09:16.228Z,13.50
2018-09-13T19:11:45.219Z,13.40
2018-09-13T19:14:13.533Z,13.40
2018-09-13T19:16:41.868Z,13.30
2018-09-13T19:19:12.313Z,13.20
2018-09-13T19:21:42.090Z,13.20
2018-09-13T19:24:11.093Z,13.10
2018-09-13T19:26:39.440Z,13.10
2018-09-13T19:29:07.747Z,13.00
2018-09-13T19:31:37.364Z,12.90
2018-09-13T19:34:05.727Z,12.90
2018-09-13T19:36:34.714Z,12.90
2018-09-13T19:39:04.287Z,12.80
2018-09-13T19:41:32.909Z,12.80
2018-09-13T19:44:01.361Z,12.70
2018-09-13T19:46:29.880Z,12.70
2018-09-13T19:48:58.260Z,12.60
2018-09-13T19:51:27.319Z,12.60
2018-09-13T19:53:55.685Z,12.50
2018-09-13T19:56:24.041Z,12.50
2018-09-13T19:58:53.019Z,12.40
2018-09-13T20:01:21.336Z,12.40
2018-09-13T20:03:51.428Z,12.40
2018-09-13T20:06:19.937Z,12.30
2018-09-13T20:08:48.555Z,12.30
2018-09-13T20:11:16.919Z,12.20
2018-09-13T20:13:45.228Z,12.20
2018-09-13T20:16:13.727Z,12.20
2018-09-13T20:18:42.139Z,12.10
2018-09-13T20:21:10.477Z,12.10
2018-09-13T20:23:38.856Z,12.10
2018-09-13T20:26:07.540Z,12.10
2018-09-13T20:28:35.865Z,12.00
2018-09-13T20:31:04.185Z,12.00
2018-09-13T20:33:32.535Z,12.00
2018-09-13T20:36:00.790Z,12.00
2018-09-13T20:38:29.125Z,11.90
2018-09-13T20:40:57.424Z,11.90
2018-09-13T20:43:26.617Z,11.80
2018-09-13T20:45:54.978Z,11.80
2018-09-13T20:48:24.380Z,11.80
2018-09-13T20:50:53.333Z,11.80
2018-09-13T20:53:21.748Z,11.80
2018-09-13T20:55:50.054Z,11.80
2018-09-13T20:58:18.388Z,11.80
2018-09-13T21:00:46.767Z,11.70
2018-09-13T21:03:15.012Z,11.70
2018-09-13T21:05:43.319Z,11.70
2018-09-13T21:08:11.640Z,11.70
2018-09-13T21:10:39.897Z,11.70
2018-09-13T21:13:08.163Z,11.60
2018-09-13T21:15:36.436Z,11.60
2018-09-13T21:18:04.701Z,11.50
2018-09-13T21:20:32.994Z,11.50
2018-09-13T21:23:01.300Z,11.50
2018-09-13T21:25:29.580Z,11.50
2018-09-13T21:27:57.841Z,11.40
2018-09-13T21:30:26.123Z,11.40
2018-09-13T21:32:54.481Z,11.40
2018-09-13T21:35:22.655Z,11.40
2018-09-13T21:37:50.875Z,11.40
2018-09-13T21:40:19.129Z,11.40
2018-09-13T21:42:47.400Z,11.30
2018-09-13T21:45:15.643Z,11.30
2018-09-13T21:47:43.836Z,11.30
2018-09-13T21:50:12.058Z,11.30
2018-09-13T21:52:40.931Z,11.20
2018-09-13T21:55:09.203Z,11.20
2018-09-13T21:57:37.416Z,11.20
2018-09-13T22:00:08.445Z,11.20
2018-09-13T22:02:37.233Z,11.10
2018-09-13T22:05:05.764Z,11.10
2018-09-13T22:07:34.093Z,11.10
2018-09-13T22:10:02.332Z,11.10
2018-09-13T22:12:30.544Z,11.10
2018-09-13T22:14:58.770Z,11.00
2018-09-13T22:17:27.728Z,11.00
2018-09-13T22:19:55.981Z,11.00
2018-09-13T22:22:24.201Z,11.00
2018-09-13T22:24:52.448Z,11.00
2018-09-13T22:27:20.684Z,11.00
2018-09-13T22:29:48.960Z,11.00
2018-09-13T22:32:17.197Z,11.00
2018-09-13T22:34:45.473Z,11.00
2018-09-13T22:37:13.751Z,11.00
2018-09-13T22:39:41.980Z,11.00
2018-09-13T22:42:10.177Z,10.90
2018-09-13T22:44:39.405Z,10.90
2018-09-13T22:47:08.235Z,10.90
2018-09-13T22:49:36.496Z,10.90
2018-09-13T22:52:04.863Z,10.80
2018-09-13T22:54:33.300Z,10.80
2018-09-13T22:57:01.560Z,10.70
2018-09-13T22:59:30.053Z,10.70
2018-09-13T23:01:58.316Z,10.70
2018-09-13T23:04:26.544Z,10.70
2018-09-13T23:06:54.781Z,10.70
2018-09-13T23:09:23.041Z,10.70
2018-09-13T23:11:51.264Z,10.70
2018-09-13T23:14:19.460Z,10.60
2018-09-13T23:16:49.581Z,10.60
2018-09-13T23:19:15.986Z,10.60
2018-09-13T23:21:44.227Z,10.60
2018-09-13T23:24:12.423Z,10.60
2018-09-13T23:26:40.659Z,10.60
2018-09-13T23:29:08.891Z,10.60
2018-09-13T23:31:37.115Z,10.60
2018-09-13T23:34:05.328Z,10.60
2018-09-13T23:36:33.570Z,10.50
2018-09-13T23:39:01.868Z,10.50
2018-09-13T23:41:30.144Z,10.50
2018-09-13T23:43:58.367Z,10.50
2018-09-13T23:46:27.574Z,10.50
2018-09-13T23:48:55.791Z,10.50
2018-09-13T23:51:24.024Z,10.40
2018-09-13T23:53:52.244Z,10.40
2018-09-13T23:56:20.480Z,10.40
2018-09-13T23:58:48.745Z,10.30
